Impacts METAR Board
IDs:

KPIT - Pittsburgh Intl, PA, US

Updated at: 1400 UTC 21 Feb 2019
Potential Impact None Slight Moderate High
Time 21/02Z 21/03Z 21/04Z 21/05Z 21/06Z 21/07Z 21/08Z 21/09Z 21/10Z 21/11Z 21/12Z 21/13Z 21/14Z
Temp35 36 36 36 41 43 42 41 40 38 37 36 36
Dewpt35 36 36 36 40 43 41 37 35 35 34 31 30
Altim29.84 29.83 29.84 29.84 29.86 29.90 29.92 29.94 29.97 30.01 30.03 30.07 30.11
VIS0.25 0.25 0.25 0.5 3 8 10 10 10 10 10 10 10
CIG2 2 2 3 4 4 18 20 18 22 25 22 21
CoverOVCOVCOVXOVCOVCOVCOVCBKNBKNOVCOVCOVCOVC
FltCatLIFRLIFRLIFRLIFRLIFRLIFRMVFRMVFRMVFRMVFRMVFRMVFRMVFR
WX-RA BR-RA FG-DZ FG-DZ FG-DZ BR-DZ--------------
WDir70000250270270260240280290280260
WSpd4 0 0 0 7 13 7 9 6 5 4 8 6
WGst-- -- -- -- -- -- -- 16 -- -- -- -- --
Raw hourly METARs
KPIT 210151Z 07004KT 1/4SM R28R/P6000FT -RA BR OVC002 02/02 A2984 RMK AO2 SFC VIS 1 SLP122 P0005 T00170017
KPIT 210251Z 00000KT 1/4SM R28R/2000V3000FT -RA FG OVC002 02/02 A2983 RMK AO2 SFC VIS 1/2 SLP119 P0002 60029 T00220022 58001 $
KPIT 210351Z 00000KT 1/4SM R28R/2000VP6000FT -DZ FG VV002 02/02 A2984 RMK AO2 RAE11DZB11 SLP121 P0001 T00220022 $
KPIT 210451Z 00000KT 1/2SM R28R/P6000FT -DZ FG OVC003 02/02 A2984 RMK AO2 SLP124 P0002 T00220022 400281039 $
KPIT 210551Z 25007KT 3SM R28R/2400VP6000FT -DZ BR SCT001 OVC004 05/04 A2986 RMK AO2 SLP128 P0000 60032 T00500044 10050 20017 53010 $
KPIT 210651Z 27013KT 8SM -DZ BKN004 OVC009 06/06 A2990 RMK AO2 DZE05B29 SLP139 P0000 T00610061 $
KPIT 210751Z 27007KT 10SM SCT009 OVC018 06/05 A2992 RMK AO2 DZE21 SLP147 P0000 T00560050 $
KPIT 210851Z 26009G16KT 10SM FEW009 BKN020 05/03 A2994 RMK AO2 SLP155 60000 T00500028 51027 $
KPIT 210951Z 24006KT 10SM FEW009 BKN018 04/02 A2997 RMK AO2 SLP167 T00440017 $
KPIT 211051Z 28005KT 10SM SCT014 OVC022 03/02 A3001 RMK AO2 SLP178 T00330017 $
KPIT 211151Z 29004KT 10SM SCT016 OVC025 03/01 A3003 RMK AO2 SLP184 60000 70075 T00280011 10072 20028 51027 $
KPIT 211251Z 28008KT 10SM OVC022 02/M01 A3007 RMK AO2 SLP198 T00221006 $
KPIT 211351Z 26006KT 10SM OVC021 02/M01 A3011 RMK AO2 PRESRR SLP213 T00221011 $



Page loaded:  14:26 UTC  |   06:26 AM Pacific  |   07:26 AM Mountain  |   08:26 AM Central  |   09:26 AM Eastern

 

ADVISORIES

FORECASTS

FORECASTS

OBSERVATIONS

USER TOOLS

ABOUT US